Terminal Aerodrome Forecast
Issued by NWS

Current Version | Previous Version | Text Only | Print | Product List | Glossary On
Versions: 1 2 3 4 5 6 7 8 9 10 11 12 13 14 15 16 17 18 19 20 21 22 23 24 25 26
232
FTUS46 KLOX 300927 AAA
TAFSBP
TAF AMD
KSBP 300927Z 3009/3106 VRB03KT P6SM SCT002
     FM301100 VRB03KT 2SM BR OVC002
     FM301500 VRB03KT 5SM BR OVC005
     FM301600 25006KT P6SM SKC
     FM302000 30008KT P6SM SKC
     FM310400 VRB03KT P6SM SKC=

USA.gov is the U.S. government's official web portal to all federal, state and local government web resources and services.